createdAt,value
2023-05-19T00:02:15.736Z,9.60
2023-05-19T00:04:44.810Z,8.83
2023-05-19T00:07:14.446Z,9.07
2023-05-19T00:09:43.712Z,8.50
2023-05-19T00:12:14.560Z,8.57
2023-05-19T00:14:45.586Z,9.07
2023-05-19T00:17:16.864Z,9.50
2023-05-19T00:19:45.435Z,10.17
2023-05-19T00:22:13.947Z,8.73
2023-05-19T00:24:42.673Z,8.63
2023-05-19T00:27:11.187Z,8.40
2023-05-19T00:29:39.667Z,8.20
2023-05-19T00:32:10.308Z,8.10
2023-05-19T00:34:38.861Z,8.53
2023-05-19T00:37:07.463Z,8.70
2023-05-19T00:39:35.896Z,12.00
2023-05-19T00:42:05.870Z,9.67
2023-05-19T00:44:34.435Z,12.07
2023-05-19T00:47:03.612Z,11.13
2023-05-19T00:49:33.479Z,11.13
2023-05-19T00:52:03.769Z,10.50
2023-05-19T00:54:32.549Z,13.73
2023-05-19T00:57:01.860Z,11.47
2023-05-19T00:59:30.540Z,9.53
2023-05-19T01:01:59.536Z,10.37
2023-05-19T01:04:28.172Z,12.67
2023-05-19T01:06:58.643Z,11.90
2023-05-19T01:09:27.273Z,9.20
2023-05-19T01:11:55.813Z,11.30
2023-05-19T01:14:24.819Z,9.63
2023-05-19T01:17:05.457Z,8.97
2023-05-19T01:20:02.269Z,9.77
2023-05-19T01:23:21.602Z,9.77
2023-05-19T01:26:21.613Z,9.23
2023-05-19T01:29:30.633Z,11.27
2023-05-19T01:32:05.065Z,10.97
2023-05-19T01:34:36.203Z,9.80
2023-05-19T01:37:06.368Z,8.80
2023-05-19T01:39:36.617Z,8.90
2023-05-19T01:42:07.089Z,10.43
2023-05-19T01:44:36.327Z,13.83
2023-05-19T01:47:07.360Z,10.20
2023-05-19T01:49:35.864Z,11.53
2023-05-19T01:52:04.434Z,11.77
2023-05-19T01:54:33.018Z,9.97
2023-05-19T01:57:14.584Z,12.03
2023-05-19T01:59:59.022Z,10.13
2023-05-19T02:02:43.820Z,12.80
2023-05-19T02:05:28.816Z,13.67
2023-05-19T02:08:07.289Z,12.13
2023-05-19T02:10:43.654Z,11.93
2023-05-19T02:13:16.694Z,11.53
2023-05-19T02:15:47.240Z,14.17
2023-05-19T02:18:20.417Z,13.17
2023-05-19T02:20:48.931Z,13.77
2023-05-19T02:23:17.589Z,16.70
2023-05-19T02:25:46.175Z,14.17
2023-05-19T02:28:14.622Z,12.07
2023-05-19T02:30:43.219Z,13.60
2023-05-19T02:33:12.203Z,12.50
2023-05-19T02:35:42.104Z,12.83
2023-05-19T02:38:10.500Z,13.50
2023-05-19T02:40:39.040Z,12.80
2023-05-19T02:43:08.175Z,15.43
2023-05-19T02:45:36.682Z,17.67
2023-05-19T02:48:05.964Z,12.90
2023-05-19T02:50:34.521Z,16.03
2023-05-19T02:53:05.764Z,17.90
2023-05-19T02:55:34.243Z,17.37
2023-05-19T02:58:02.764Z,15.67
2023-05-19T03:00:31.505Z,14.90
2023-05-19T03:03:02.952Z,14.97
2023-05-19T03:05:32.330Z,15.77
2023-05-19T03:08:00.837Z,14.77
2023-05-19T03:10:30.825Z,14.77
2023-05-19T03:12:59.453Z,13.90
2023-05-19T03:15:27.933Z,13.87
2023-05-19T03:17:56.602Z,15.17
2023-05-19T03:20:28.329Z,15.40
2023-05-19T03:22:56.889Z,15.23
2023-05-19T03:25:26.106Z,15.77
2023-05-19T03:27:55.945Z,17.30
2023-05-19T03:30:24.572Z,15.40
2023-05-19T03:32:53.337Z,16.37
2023-05-19T03:35:22.457Z,15.40
2023-05-19T03:37:50.994Z,13.93
2023-05-19T03:40:19.977Z,15.30
2023-05-19T03:42:48.467Z,14.77
2023-05-19T03:45:18.441Z,15.97
2023-05-19T03:47:47.657Z,17.93
2023-05-19T03:50:16.285Z,17.50
2023-05-19T03:52:46.504Z,16.67
2023-05-19T03:55:16.416Z,16.83
2023-05-19T03:57:45.061Z,14.73
2023-05-19T04:00:15.155Z,14.90
2023-05-19T04:02:45.202Z,16.00
2023-05-19T04:05:13.834Z,15.57
2023-05-19T04:07:43.163Z,14.97
2023-05-19T04:10:12.812Z,15.87
2023-05-19T04:12:41.507Z,14.93
2023-05-19T04:15:12.467Z,14.97
2023-05-19T04:17:41.974Z,15.43
2023-05-19T04:20:13.733Z,15.73
2023-05-19T04:22:42.608Z,15.33
2023-05-19T04:25:12.038Z,15.77
2023-05-19T04:27:41.053Z,15.00
2023-05-19T04:30:11.259Z,15.80
2023-05-19T04:32:41.486Z,16.83
2023-05-19T04:35:13.716Z,16.87
2023-05-19T04:37:45.940Z,14.67
2023-05-19T04:40:14.827Z,14.83
2023-05-19T04:42:46.221Z,15.37
2023-05-19T04:45:15.057Z,14.37
2023-05-19T04:47:44.479Z,15.70
2023-05-19T04:50:14.587Z,14.67
2023-05-19T04:52:45.517Z,15.03
2023-05-19T04:55:14.250Z,16.27
2023-05-19T04:57:42.856Z,14.70
2023-05-19T05:00:14.509Z,17.40
2023-05-19T05:02:43.532Z,13.13
2023-05-19T05:05:13.520Z,15.50
2023-05-19T05:07:42.013Z,14.47
2023-05-19T05:10:11.988Z,13.13
2023-05-19T05:12:41.208Z,13.83
2023-05-19T05:15:11.810Z,13.23
2023-05-19T05:17:41.095Z,12.57
2023-05-19T05:20:12.748Z,12.30
2023-05-19T05:22:43.684Z,13.37
2023-05-19T05:25:14.889Z,14.07
2023-05-19T05:27:43.698Z,11.87
2023-05-19T05:30:12.994Z,13.93
2023-05-19T05:32:41.896Z,11.80
2023-05-19T05:35:11.423Z,11.23
2023-05-19T05:37:39.904Z,14.00
2023-05-19T05:40:11.290Z,12.03
2023-05-19T05:42:39.760Z,10.83
2023-05-19T05:45:09.616Z,11.43
2023-05-19T05:47:39.830Z,12.40
2023-05-19T05:50:11.147Z,12.17
2023-05-19T05:52:42.362Z,12.40
2023-05-19T05:55:14.608Z,10.93
2023-05-19T05:57:43.123Z,11.47
2023-05-19T06:00:15.775Z,12.20
2023-05-19T06:02:47.597Z,13.77
2023-05-19T06:05:16.600Z,11.17
2023-05-19T06:07:45.898Z,12.57
2023-05-19T06:10:15.763Z,9.73
2023-05-19T06:12:44.322Z,10.53
2023-05-19T06:15:13.061Z,10.97
2023-05-19T06:17:41.531Z,11.33
2023-05-19T06:20:11.556Z,10.00
2023-05-19T06:22:39.999Z,11.23
2023-05-19T06:25:09.990Z,9.63
2023-05-19T06:27:39.920Z,10.73
2023-05-19T06:30:10.326Z,10.33
2023-05-19T06:32:38.853Z,12.37
2023-05-19T06:35:08.223Z,8.80
2023-05-19T06:37:36.814Z,11.47
2023-05-19T06:40:06.934Z,9.77
2023-05-19T06:42:35.541Z,9.27
2023-05-19T06:45:06.321Z,8.93
2023-05-19T06:47:34.863Z,9.73
2023-05-19T06:50:03.501Z,10.70
2023-05-19T06:52:32.011Z,8.47
2023-05-19T06:55:00.581Z,12.00
2023-05-19T06:57:29.182Z,8.67
2023-05-19T06:59:57.704Z,10.57
2023-05-19T07:02:27.588Z,8.10
2023-05-19T07:04:57.492Z,9.90
2023-05-19T07:07:26.814Z,8.27
2023-05-19T07:09:56.011Z,8.33
2023-05-19T07:12:24.736Z,10.13
2023-05-19T07:14:53.253Z,9.60
2023-05-19T07:17:21.730Z,9.50
2023-05-19T07:19:51.609Z,8.47
2023-05-19T07:22:20.129Z,7.93
2023-05-19T07:24:48.597Z,8.10
2023-05-19T07:27:17.111Z,9.80
2023-05-19T07:29:45.594Z,9.67
2023-05-19T07:32:14.273Z,8.23
2023-05-19T07:34:43.260Z,8.83
2023-05-19T07:37:13.292Z,8.40
2023-05-19T07:39:41.802Z,8.33
2023-05-19T07:42:10.588Z,7.73
2023-05-19T07:44:39.082Z,8.37
2023-05-19T07:47:07.939Z,8.40
2023-05-19T07:49:36.558Z,8.33
2023-05-19T07:52:05.447Z,8.43
2023-05-19T07:54:35.301Z,7.67
2023-05-19T07:57:03.829Z,9.87
2023-05-19T07:59:32.790Z,10.57
2023-05-19T08:02:01.464Z,8.13
2023-05-19T08:04:30.083Z,9.13
2023-05-19T08:06:58.640Z,8.37
2023-05-19T08:09:27.127Z,8.30
2023-05-19T08:11:57.042Z,9.37
2023-05-19T08:14:26.344Z,8.23
2023-05-19T08:16:54.838Z,8.93
2023-05-19T08:19:23.479Z,10.73
2023-05-19T08:21:52.108Z,9.03
2023-05-19T08:24:20.700Z,9.23
2023-05-19T08:26:49.198Z,7.33
2023-05-19T08:29:19.036Z,7.83
2023-05-19T08:31:47.653Z,8.67
2023-05-19T08:34:16.201Z,8.53
2023-05-19T08:36:45.302Z,8.60
2023-05-19T08:39:16.318Z,9.53
2023-05-19T08:41:44.999Z,8.17
2023-05-19T08:44:13.649Z,9.03
2023-05-19T08:46:43.761Z,9.43
2023-05-19T08:49:15.865Z,8.63
2023-05-19T08:51:59.537Z,9.50
2023-05-19T08:54:40.144Z,9.07
2023-05-19T08:57:10.106Z,11.30
2023-05-19T08:59:40.493Z,12.67
2023-05-19T09:02:14.071Z,10.77
2023-05-19T09:04:46.043Z,8.97
2023-05-19T09:07:15.994Z,7.77
2023-05-19T09:09:44.686Z,8.57
2023-05-19T09:12:14.359Z,10.80
2023-05-19T09:14:43.173Z,10.93
2023-05-19T09:17:13.191Z,10.87
2023-05-19T09:19:48.220Z,10.03
2023-05-19T09:22:19.091Z,10.47
2023-05-19T09:24:48.840Z,11.00
2023-05-19T09:27:23.276Z,14.50
2023-05-19T09:29:51.951Z,12.10
2023-05-19T09:32:28.473Z,12.93
2023-05-19T09:34:57.147Z,10.50
2023-05-19T09:37:25.855Z,9.73
2023-05-19T09:39:55.982Z,11.13
2023-05-19T09:42:29.913Z,16.23
2023-05-19T09:45:02.484Z,11.53
2023-05-19T09:47:38.137Z,10.87
2023-05-19T09:50:09.013Z,11.83
2023-05-19T09:52:38.554Z,12.67
2023-05-19T09:55:13.337Z,14.90
2023-05-19T09:57:42.372Z,12.70
2023-05-19T10:00:14.399Z,11.83
2023-05-19T10:02:46.213Z,11.70
2023-05-19T10:05:17.858Z,11.17
2023-05-19T10:07:48.597Z,12.23
2023-05-19T10:10:17.782Z,12.50
2023-05-19T10:12:47.130Z,14.97
2023-05-19T10:15:22.241Z,14.93
2023-05-19T10:17:53.807Z,12.40
2023-05-19T10:20:22.282Z,10.73
2023-05-19T10:22:50.967Z,10.77
2023-05-19T10:25:20.114Z,10.07
2023-05-19T10:27:56.253Z,12.57
2023-05-19T10:30:30.976Z,13.40
2023-05-19T10:33:03.122Z,12.40
2023-05-19T10:36:09.121Z,13.60
2023-05-19T10:38:50.121Z,12.53
2023-05-19T10:41:29.704Z,12.87
2023-05-19T10:44:11.069Z,13.20
2023-05-19T10:46:43.085Z,11.57
2023-05-19T10:49:22.796Z,10.03
2023-05-19T10:51:53.522Z,11.10
2023-05-19T10:54:43.507Z,10.97
2023-05-19T10:57:17.075Z,11.93
2023-05-19T10:59:47.012Z,10.73
2023-05-19T11:02:41.619Z,11.00
2023-05-19T11:05:14.629Z,12.83
2023-05-19T11:07:44.895Z,11.60
2023-05-19T11:10:14.220Z,13.93
2023-05-19T11:12:46.138Z,11.63
2023-05-19T11:15:16.681Z,9.43
2023-05-19T11:17:50.135Z,12.33
2023-05-19T11:20:28.063Z,12.13
2023-05-19T11:23:08.192Z,10.90
2023-05-19T11:25:44.631Z,15.13
2023-05-19T11:28:14.388Z,13.10
2023-05-19T11:30:44.638Z,11.50
2023-05-19T11:33:14.823Z,11.70
2023-05-19T11:35:47.808Z,10.23
2023-05-19T11:38:16.627Z,11.20
2023-05-19T11:40:45.606Z,10.00
2023-05-19T11:43:14.053Z,10.63
2023-05-19T11:45:42.854Z,9.77
2023-05-19T11:48:13.932Z,9.53
2023-05-19T11:50:44.988Z,12.03
2023-05-19T11:53:14.745Z,13.40
2023-05-19T11:55:48.576Z,10.37
2023-05-19T11:58:17.955Z,10.73
2023-05-19T12:00:48.589Z,8.90
2023-05-19T12:03:22.217Z,12.00
2023-05-19T12:05:52.432Z,11.80
2023-05-19T12:08:21.637Z,8.50
2023-05-19T12:10:51.609Z,9.37
2023-05-19T12:13:22.729Z,10.77
2023-05-19T12:15:53.244Z,9.13
2023-05-19T12:18:21.954Z,11.60
2023-05-19T12:20:52.281Z,10.10
2023-05-19T12:23:21.342Z,10.27
2023-05-19T12:25:50.710Z,12.67
2023-05-19T12:28:20.712Z,11.03
2023-05-19T12:30:52.264Z,12.20
2023-05-19T12:33:21.997Z,9.20
2023-05-19T12:35:52.601Z,10.77
2023-05-19T12:38:22.250Z,10.27
2023-05-19T12:40:51.882Z,9.53
2023-05-19T12:43:24.116Z,10.53
2023-05-19T12:45:53.472Z,9.90
2023-05-19T12:48:24.063Z,8.63
2023-05-19T12:50:55.620Z,8.53
2023-05-19T12:53:27.431Z,10.17
2023-05-19T12:55:57.060Z,8.73
2023-05-19T12:58:25.641Z,8.20
2023-05-19T13:01:00.814Z,8.63
2023-05-19T13:03:29.574Z,8.60
2023-05-19T13:06:00.218Z,9.47
2023-05-19T13:08:29.784Z,7.40
2023-05-19T13:10:58.316Z,9.53
2023-05-19T13:13:26.832Z,8.60
2023-05-19T13:15:55.551Z,9.57
2023-05-19T13:18:24.523Z,8.60
2023-05-19T13:20:54.333Z,7.17
2023-05-19T13:23:24.574Z,8.23
2023-05-19T13:25:53.063Z,6.90
2023-05-19T13:28:21.587Z,8.07
2023-05-19T13:30:51.375Z,9.33
2023-05-19T13:33:19.887Z,8.10
2023-05-19T13:35:49.338Z,8.50
2023-05-19T13:38:17.832Z,8.87
2023-05-19T13:40:47.873Z,8.50
2023-05-19T13:43:16.437Z,9.27
2023-05-19T13:45:45.168Z,8.17
2023-05-19T13:48:13.658Z,8.27
2023-05-19T13:50:42.607Z,7.07
2023-05-19T13:53:11.632Z,6.83
2023-05-19T13:55:40.308Z,7.40
2023-05-19T13:58:11.095Z,7.40
2023-05-19T14:06:20.819Z,8.50
2023-05-19T14:08:49.390Z,8.63
2023-05-19T14:11:21.870Z,7.17
2023-05-19T14:14:11.413Z,9.00
2023-05-19T14:16:40.831Z,10.93
2023-05-19T14:19:34.258Z,11.07
2023-05-19T14:22:02.742Z,8.53
2023-05-19T14:24:31.684Z,9.97
2023-05-19T14:27:00.241Z,7.27
2023-05-19T14:29:31.096Z,7.00
2023-05-19T14:31:59.850Z,9.73
2023-05-19T14:34:28.409Z,9.20
2023-05-19T14:36:56.961Z,6.87
2023-05-19T14:39:25.497Z,7.33
2023-05-19T14:41:54.199Z,9.57
2023-05-19T14:44:22.681Z,8.63
2023-05-19T14:46:52.544Z,9.17
2023-05-19T14:49:20.988Z,8.93
2023-05-19T14:51:49.492Z,8.20
2023-05-19T14:54:18.075Z,8.33
2023-05-19T14:56:46.588Z,7.80
2023-05-19T14:59:15.163Z,10.90
2023-05-19T15:01:43.721Z,8.20
2023-05-19T15:04:13.757Z,9.33
2023-05-19T15:06:42.352Z,11.77
2023-05-19T15:09:12.031Z,8.80
2023-05-19T15:11:40.575Z,10.00
2023-05-19T15:14:09.024Z,10.43
2023-05-19T15:16:37.581Z,9.33
2023-05-19T15:19:06.240Z,12.37
2023-05-19T15:21:36.208Z,10.33
2023-05-19T15:24:04.817Z,10.50
2023-05-19T15:26:33.846Z,10.17
2023-05-19T15:29:02.386Z,8.77
2023-05-19T15:31:31.061Z,9.00
2023-05-19T15:33:59.876Z,8.30
2023-05-19T15:36:28.418Z,9.13
2023-05-19T15:38:58.352Z,8.67
2023-05-19T15:41:26.867Z,8.37
2023-05-19T15:43:55.387Z,11.33
2023-05-19T15:46:23.863Z,10.23
2023-05-19T15:48:52.392Z,9.27
2023-05-19T15:51:20.996Z,10.07
2023-05-19T15:53:49.725Z,23.07
2023-05-19T15:56:20.014Z,9.63
2023-05-19T15:58:48.812Z,9.03
2023-05-19T16:01:18.659Z,8.57
2023-05-19T16:03:47.541Z,8.27
2023-05-19T16:06:16.190Z,11.07
2023-05-19T16:08:44.800Z,8.83
2023-05-19T16:11:13.308Z,9.07
2023-05-19T16:13:43.356Z,10.97
2023-05-19T16:16:11.895Z,7.60
2023-05-19T16:18:44.250Z,9.53
2023-05-19T16:21:12.851Z,9.33
2023-05-19T16:23:41.327Z,9.03
2023-05-19T16:26:09.837Z,9.87
2023-05-19T16:28:38.320Z,11.63
2023-05-19T16:31:08.287Z,9.20
2023-05-19T16:33:36.819Z,8.40
2023-05-19T16:36:06.501Z,7.93
2023-05-19T16:38:35.097Z,8.90
2023-05-19T16:41:05.284Z,9.83
2023-05-19T16:43:34.435Z,11.70
2023-05-19T16:46:04.565Z,9.67
2023-05-19T16:48:34.707Z,9.93
2023-05-19T16:51:03.197Z,12.10
2023-05-19T16:53:32.145Z,11.63
2023-05-19T16:56:00.677Z,9.07
2023-05-19T16:58:30.917Z,9.30
2023-05-19T17:00:59.604Z,9.33
2023-05-19T17:03:28.369Z,9.20
2023-05-19T17:05:58.395Z,15.67
2023-05-19T17:08:26.890Z,10.43
2023-05-19T17:10:55.744Z,10.57
2023-05-19T17:13:24.618Z,9.20
2023-05-19T17:15:53.577Z,11.60
2023-05-19T17:18:22.284Z,10.37
2023-05-19T17:20:50.751Z,10.43
2023-05-19T17:23:20.704Z,10.77
2023-05-19T17:25:49.211Z,10.23
2023-05-19T17:28:17.657Z,10.17
2023-05-19T17:30:46.151Z,13.37
2023-05-19T17:33:14.709Z,11.57
2023-05-19T17:35:43.197Z,10.10
2023-05-19T17:38:11.896Z,13.47
2023-05-19T17:40:42.189Z,8.97
2023-05-19T17:43:10.916Z,8.73
2023-05-19T17:45:39.489Z,10.97
2023-05-19T17:48:08.400Z,13.73
2023-05-19T17:50:36.901Z,12.07
2023-05-19T17:53:06.101Z,8.43
2023-05-19T17:55:35.833Z,9.77
2023-05-19T17:58:06.656Z,7.80
2023-05-19T18:00:35.879Z,11.53
2023-05-19T18:03:06.274Z,11.40
2023-05-19T18:05:35.654Z,10.50
2023-05-19T18:08:09.320Z,9.77
2023-05-19T18:10:40.896Z,7.93
2023-05-19T18:13:14.043Z,9.40
2023-05-19T18:15:42.835Z,10.47
2023-05-19T18:18:11.764Z,9.13
2023-05-19T18:20:44.203Z,8.77
2023-05-19T18:23:13.425Z,8.07
2023-05-19T18:25:41.923Z,7.97
2023-05-19T18:28:12.546Z,9.43
2023-05-19T18:30:40.946Z,10.20
2023-05-19T18:33:09.634Z,18.70
2023-05-19T18:35:38.486Z,13.80
2023-05-19T18:38:07.049Z,11.90
2023-05-19T18:40:35.936Z,9.43
2023-05-19T18:43:04.645Z,10.73
2023-05-19T18:45:34.459Z,9.00
2023-05-19T18:48:03.006Z,6.63
2023-05-19T18:50:32.074Z,7.93
2023-05-19T18:53:00.761Z,9.53
2023-05-19T18:55:29.220Z,6.27
2023-05-19T18:57:57.696Z,7.63
2023-05-19T19:00:28.101Z,7.20
2023-05-19T19:02:58.077Z,7.97
2023-05-19T19:05:26.756Z,6.33
2023-05-19T19:07:55.381Z,7.60
2023-05-19T19:10:24.046Z,6.77
2023-05-19T19:12:52.506Z,7.90
2023-05-19T19:15:21.028Z,7.83
2023-05-19T19:17:49.622Z,7.00
2023-05-19T19:20:19.682Z,7.37
2023-05-19T19:22:48.184Z,9.07
2023-05-19T19:25:16.940Z,9.40
2023-05-19T19:27:45.567Z,8.10
2023-05-19T19:30:14.584Z,7.43
2023-05-19T19:32:43.085Z,7.13
2023-05-19T19:35:12.260Z,10.97
2023-05-19T19:37:42.190Z,7.43
2023-05-19T19:40:12.296Z,7.60
2023-05-19T19:42:40.998Z,10.13
2023-05-19T19:45:12.506Z,9.80
2023-05-19T19:47:42.552Z,9.63
2023-05-19T19:50:12.739Z,9.17
2023-05-19T19:52:42.571Z,10.97
2023-05-19T19:55:11.743Z,10.37
2023-05-19T19:57:40.263Z,11.63
2023-05-19T20:00:11.003Z,10.73
2023-05-19T20:02:51.646Z,11.00
2023-05-19T20:05:24.336Z,11.03
2023-05-19T20:07:54.144Z,12.40
2023-05-19T20:10:22.719Z,12.30
2023-05-19T20:12:51.338Z,11.70
2023-05-19T20:15:20.033Z,11.70
2023-05-19T20:17:48.510Z,13.23
2023-05-19T20:20:17.789Z,13.33
2023-05-19T20:22:46.463Z,10.80
2023-05-19T20:25:16.676Z,9.63
2023-05-19T20:27:45.254Z,10.07
2023-05-19T20:30:14.049Z,10.23
2023-05-19T20:32:42.572Z,8.63
2023-05-19T20:35:11.351Z,11.17
2023-05-19T20:37:40.046Z,10.67
2023-05-19T20:40:09.898Z,10.33
2023-05-19T20:42:41.092Z,8.97
2023-05-19T20:45:10.222Z,11.93
2023-05-19T20:47:38.973Z,12.37
2023-05-19T20:50:08.919Z,8.57
2023-05-19T20:52:37.482Z,12.30
2023-05-19T20:55:06.614Z,11.57
2023-05-19T20:57:35.820Z,11.57
2023-05-19T21:00:07.006Z,11.17
2023-05-19T21:02:35.488Z,13.20
2023-05-19T21:05:04.687Z,10.20
2023-05-19T21:07:33.254Z,11.37
2023-05-19T21:10:01.887Z,11.40
2023-05-19T21:12:34.122Z,11.40
2023-05-19T21:15:03.748Z,9.60
2023-05-19T21:17:34.705Z,10.00
2023-05-19T21:20:03.801Z,10.30
2023-05-19T21:22:32.325Z,14.47
2023-05-19T21:25:00.823Z,16.63
2023-05-19T21:27:29.464Z,13.23
2023-05-19T21:29:57.955Z,12.20
2023-05-19T21:32:26.593Z,10.13
2023-05-19T21:34:56.464Z,11.80
2023-05-19T21:37:25.059Z,14.90
2023-05-19T21:39:53.554Z,11.67
2023-05-19T21:42:21.997Z,11.20
2023-05-19T21:44:50.652Z,12.77
2023-05-19T21:47:19.187Z,13.10
2023-05-19T21:49:47.679Z,13.17
2023-05-19T21:52:19.012Z,12.90
2023-05-19T21:54:47.893Z,13.30
2023-05-19T21:57:16.523Z,11.63
2023-05-19T21:59:45.084Z,15.93
2023-05-19T22:02:13.628Z,12.83
2023-05-19T22:04:42.971Z,11.83
2023-05-19T22:07:11.619Z,11.27
2023-05-19T22:09:41.668Z,12.10
2023-05-19T22:12:10.204Z,12.07
2023-05-19T22:14:38.663Z,11.83
2023-05-19T22:17:07.191Z,13.83
2023-05-19T22:19:35.640Z,13.10
2023-05-19T22:22:13.109Z,13.00
2023-05-19T22:24:43.969Z,13.53
2023-05-19T22:27:12.487Z,10.57
2023-05-19T22:29:41.035Z,13.27
2023-05-19T22:32:12.149Z,12.93
2023-05-19T22:34:41.322Z,13.67
2023-05-19T22:37:09.832Z,10.37
2023-05-19T22:39:39.387Z,12.07
2023-05-19T22:42:09.212Z,13.83
2023-05-19T22:44:37.677Z,13.10
2023-05-19T22:47:06.581Z,10.93
2023-05-19T22:49:35.127Z,11.27
2023-05-19T22:52:03.549Z,12.90
2023-05-19T22:54:32.063Z,11.80
2023-05-19T22:57:00.600Z,12.70
2023-05-19T22:59:30.632Z,14.00
2023-05-19T23:01:59.158Z,15.47
2023-05-19T23:04:27.867Z,11.73
2023-05-19T23:06:56.513Z,10.07
2023-05-19T23:09:25.233Z,14.63
2023-05-19T23:11:53.759Z,11.60
2023-05-19T23:14:22.891Z,9.90
2023-05-19T23:16:53.066Z,10.67
2023-05-19T23:19:22.270Z,11.10
2023-05-19T23:21:50.872Z,10.30
2023-05-19T23:24:19.440Z,9.90
2023-05-19T23:26:47.901Z,11.50
2023-05-19T23:29:16.499Z,10.87
2023-05-19T23:31:45.795Z,9.93
2023-05-19T23:34:15.825Z,12.30
2023-05-19T23:36:44.322Z,10.37
2023-05-19T23:39:12.811Z,11.37
2023-05-19T23:41:41.334Z,11.67
2023-05-19T23:44:10.065Z,9.33
2023-05-19T23:46:38.613Z,9.30
2023-05-19T23:49:07.130Z,9.00
2023-05-19T23:51:36.952Z,10.03
2023-05-19T23:54:06.640Z,10.30
2023-05-19T23:56:35.160Z,11.67
2023-05-19T23:59:03.618Z,11.53
